Hauptseite
METAR-TAF:

METAR-TAF

Flughäfen :

Flughafen Chongqing-Jiangbei

Chongqing, China

Breite: 29-31N, Länge: 106-29E, Höhe: 351 m

Beobachtung

Neuester Wetterbericht von vor 30 Minuten, um 17:00 UTC
Wind 6 kt aus Nord
Temperatur 24°C
Luftfeuchtigkeit 69%
Luftdruck 1010 hPa
Sichtweite 10 km oder mehr
keine Wolken unter 1500 m und keine Kumulonimbus oder Gewitterwolken

METAR: ZUCK 221700Z 01003MPS CAVOK 24/18 Q1010 NOSIG

Zeit: 01:30 (17:30 UTC)

Prognose

Neuester Wetterbericht von vor 8 Stunden und 28 Minuten, um 09:02 UTC
Gültige Prognose vom 22 um 12 UTC bis 23 um 12 UTC
Wind 6 kt aus Nord/Nordost
Sichtweite: 6000 m
Aufgelockert bewölkt in der Höhe von 5000 ft

TAF: ZUCK 220902Z 2212/2312 03003MPS 6000 SCT050 TX33/2307Z TN21/2222Z

Wetterbeobachtungen und Prognosen von mehr als 4000 Flughäfen (METAR und TAF Bericht).

Die verfügbaren Stationen werden durch gelbe und rote Markierungen auf der Karte dargestellt.

Führen Sie die Maus auf sie, um den Namen der Station zu sehen.

Darauf klicken, um die Beobachtung von Wetterbeobachtungen und Prognosen zu sehen.

Um die Karte zu ändern : klicken Sie auf den grünen Tasten mit einem schwarzen Kreuz Zum Vergrößern, auf den grünen Button mit einem Gedankenstrich zu verkleinern, oder auf die grünen Pfeile für benachbarte Karten.


METAR-TAF: